Bright Hope — HPTM — position and weather

sailwx.info

Track history (hours):
 
Tides and Currents Weather Stations Pressure Air Temp Water Temp Dewpoint Dewpoint Depression Visibility Wind Speed Wind Dir Waves Ship Positions

Bright Hope

Last reported at 2015-Jul-28 03:11 UTC. Time now 2015-Jul-28 05:47 UTC.
Position N 32°30' E 125°34'.

Length 170 m; draft 5.7 m.

Type: Cargo ship. MMSI: 371117000.

Date/timePositionNaut miles runAvg speedWind from/ knotsBaromVisibWave heightAir tempDewpointWater temp
2015-Jul-28 03:11N 32°30' E 125°34'913.6
2015-Jul-28 02:33N 32°27' E 125°25'2713.4
2015-Jul-28 00:33N 32°13' E 124°58'1413.6
2015-Jul-27 23:29N 32°04' E 124°44'1413.2
2015-Jul-27 22:25N 31°57' E 124°30'1113.1
2015-Jul-27 21:33N 31°51' E 124°18'1313.1
2015-Jul-27 20:34N 31°43' E 124°06'1313.3
2015-Jul-27 19:34N 31°36' E 123°53'1313.1
2015-Jul-27 18:33N 31°29' E 123°40'1313.5
2015-Jul-27 17:34N 31°22' E 123°27'1413.5
2015-Jul-27 16:34N 31°14' E 123°14'1413.9
2015-Jul-27 15:33N 31°06' E 123°00'1414.0
2015-Jul-27 14:33N 30°60' E 122°46'1313.1
2015-Jul-27 13:33N 30°59' E 122°30'1111.0
2015-Jul-27 12:33N 31°02' E 122°18'1111.1
2015-Jul-27 11:33N 31°04' E 122°05'1111.2
2015-Jul-27 10:33N 31°09' E 121°53'1312.6
2015-Jul-27 09:33N 31°18' E 121°43'1111.2
2015-Jul-27 08:33N 31°24' E 121°33'9 9.4
2015-Jul-27 07:33N 31°30' E 121°24'1111.3
2015-Jul-27 06:33N 31°38' E 121°15'1414.0
2015-Jul-27 05:32N 31°46' E 121°01'1212.3
2015-Jul-27 04:33N 31°56' E 120°52'1111.1
2015-Jul-27 03:32N 31°60' E 120°40'2 1.0
2015-Jul-27 01:15N 31°59' E 120°37'0 0.0
2015-Jul-27 00:33N 31°59' E 120°37'0 0.0
2015-Jul-26 23:33N 31°59' E 120°37'0 0.0
2015-Jul-26 22:33N 31°59' E 120°37'0 0.0
2015-Jul-26 21:27N 31°59' E 120°37'0 0.0
2015-Jul-26 20:28N 31°59' E 120°37'0 0.0
2015-Jul-26 19:33N 31°59' E 120°37'0 0.0
2015-Jul-26 18:29N 31°59' E 120°37'0 0.0
2015-Jul-26 15:31N 31°59' E 120°37'0 0.0
2015-Jul-26 14:33N 31°59' E 120°37'0 0.0
2015-Jul-26 13:32N 31°59' E 120°37'0 0.0
2015-Jul-26 12:33N 31°59' E 120°37'0 0.0
2015-Jul-26 10:29N 31°59' E 120°37'0 0.0
2015-Jul-26 09:33N 31°59' E 120°37'0 0.0
2015-Jul-26 08:33N 31°59' E 120°37'0 0.0
2015-Jul-26 07:33N 31°59' E 120°37'0 0.0
2015-Jul-26 06:32N 31°59' E 120°37'0 0.0
2015-Jul-26 05:33N 31°59' E 120°37'0 0.0
2015-Jul-26 04:32N 31°59' E 120°37'0 0.0
2015-Jul-26 03:33N 31°59' E 120°37'0 0.0
2015-Jul-26 02:33N 31°59' E 120°37'0 0.0
2015-Jul-26 01:33N 31°59' E 120°37'0 0.0
2015-Jul-26 00:31N 31°59' E 120°37'0 0.0
2015-Jul-25 23:33N 31°59' E 120°37'0 0.0
2015-Jul-25 22:33N 31°59' E 120°37'0 0.0
2015-Jul-25 21:33N 31°59' E 120°37'0 0.0
2015-Jul-25 20:33N 31°59' E 120°37'0 0.0
2015-Jul-25 19:27N 31°59' E 120°37'0 0.0
2015-Jul-25 18:32N 31°59' E 120°37'0 0.0
2015-Jul-25 17:33N 31°59' E 120°37'0 0.0
2015-Jul-25 16:32N 31°59' E 120°37'0 0.0
2015-Jul-25 15:33N 31°59' E 120°37'0 0.0
2015-Jul-25 14:33N 31°59' E 120°37'0 0.0
2015-Jul-25 13:33N 31°59' E 120°37'0 0.0
2015-Jul-25 12:33N 31°59' E 120°37'0 0.0
2015-Jul-25 11:33N 31°59' E 120°37'0 0.0
2015-Jul-25 10:33N 31°59' E 120°37'0 0.0
2015-Jul-25 09:33N 31°59' E 120°37'0 0.0
2015-Jul-25 08:30N 31°59' E 120°37'0 0.0
2015-Jul-25 07:33N 31°59' E 120°37'0 0.0
2015-Jul-25 06:32N 31°59' E 120°37'3 2.8
2015-Jul-25 05:33N 32°00' E 120°40'9 8.9
2015-Jul-25 04:33N 31°59' E 120°51'10 9.7
2015-Jul-25 03:30N 31°49' E 120°55'9 9.2
2015-Jul-25 02:32N 31°46' E 121°05'1010.4
2015-Jul-25 01:33N 31°39' E 121°14'1010.4
2015-Jul-25 00:33N 31°32' E 121°22'1110.6
2015-Jul-24 23:33N 31°25' E 121°32'1110.5
2015-Jul-24 22:33N 31°20' E 121°42'1110.8
2015-Jul-24 21:33N 31°16' E 121°54'10 9.8
2015-Jul-24 20:33N 31°14' E 122°05'1111.1
2015-Jul-24 19:33N 31°08' E 122°16'1110.7
2015-Jul-24 18:33N 31°07' E 122°29'7 5.9
2015-Jul-24 17:25N 31°11' E 122°35'2 1.9
2015-Jul-24 16:13N 31°12' E 122°37'0 0.2
2015-Jul-24 15:28N 31°12' E 122°37'0 0.1
2015-Jul-24 14:30N 31°12' E 122°37'0 0.0
2015-Jul-24 13:15N 31°12' E 122°37'0 0.0
2015-Jul-24 12:33N 31°12' E 122°37'0 0.1
2015-Jul-24 11:33N 31°12' E 122°37'0 0.1
2015-Jul-24 10:21N 31°13' E 122°37'0 0.0
2015-Jul-24 09:28N 31°13' E 122°37'0 0.0
2015-Jul-24 08:24N 31°13' E 122°37'0 0.0
2015-Jul-24 07:33N 31°13' E 122°37'1 0.7
2015-Jul-24 05:33N 31°13' E 122°38'9 7.6
2015-Jul-24 04:23N 31°13' E 122°48'  
Track history (hours):
 
Tides and Currents Weather Stations Pressure Air Temp Water Temp Dewpoint Dewpoint Depression Visibility Wind Speed Wind Dir Waves Ship Positions

Bright Hope

Last reported at 2015-Jul-28 03:11 UTC. Time now 2015-Jul-28 05:47 UTC.
Position N 32°30' E 125°34'.

Length 170 m; draft 5.7 m.

Type: Cargo ship. MMSI: 371117000.

Date/timePositionNaut miles runAvg speedWind from/ knotsBaromVisibWave heightAir tempDewpointWater temp
2015-Jul-28 03:11N 32°30' E 125°34'913.6
2015-Jul-28 02:33N 32°27' E 125°25'2713.4
2015-Jul-28 00:33N 32°13' E 124°58'1413.6
2015-Jul-27 23:29N 32°04' E 124°44'1413.2
2015-Jul-27 22:25N 31°57' E 124°30'1113.1
2015-Jul-27 21:33N 31°51' E 124°18'1313.1
2015-Jul-27 20:34N 31°43' E 124°06'1313.3
2015-Jul-27 19:34N 31°36' E 123°53'1313.1
2015-Jul-27 18:33N 31°29' E 123°40'1313.5
2015-Jul-27 17:34N 31°22' E 123°27'1413.5
2015-Jul-27 16:34N 31°14' E 123°14'1413.9
2015-Jul-27 15:33N 31°06' E 123°00'1414.0
2015-Jul-27 14:33N 30°60' E 122°46'1313.1
2015-Jul-27 13:33N 30°59' E 122°30'1111.0
2015-Jul-27 12:33N 31°02' E 122°18'1111.1
2015-Jul-27 11:33N 31°04' E 122°05'1111.2
2015-Jul-27 10:33N 31°09' E 121°53'1312.6
2015-Jul-27 09:33N 31°18' E 121°43'1111.2
2015-Jul-27 08:33N 31°24' E 121°33'9 9.4
2015-Jul-27 07:33N 31°30' E 121°24'1111.3
2015-Jul-27 06:33N 31°38' E 121°15'1414.0
2015-Jul-27 05:32N 31°46' E 121°01'1212.3
2015-Jul-27 04:33N 31°56' E 120°52'1111.1
2015-Jul-27 03:32N 31°60' E 120°40'2 1.0
2015-Jul-27 01:15N 31°59' E 120°37'0 0.0
2015-Jul-27 00:33N 31°59' E 120°37'0 0.0
2015-Jul-26 23:33N 31°59' E 120°37'0 0.0
2015-Jul-26 22:33N 31°59' E 120°37'0 0.0
2015-Jul-26 21:27N 31°59' E 120°37'0 0.0
2015-Jul-26 20:28N 31°59' E 120°37'0 0.0
2015-Jul-26 19:33N 31°59' E 120°37'0 0.0
2015-Jul-26 18:29N 31°59' E 120°37'0 0.0
2015-Jul-26 15:31N 31°59' E 120°37'0 0.0
2015-Jul-26 14:33N 31°59' E 120°37'0 0.0
2015-Jul-26 13:32N 31°59' E 120°37'0 0.0
2015-Jul-26 12:33N 31°59' E 120°37'0 0.0
2015-Jul-26 10:29N 31°59' E 120°37'0 0.0
2015-Jul-26 09:33N 31°59' E 120°37'0 0.0
2015-Jul-26 08:33N 31°59' E 120°37'0 0.0
2015-Jul-26 07:33N 31°59' E 120°37'0 0.0
2015-Jul-26 06:32N 31°59' E 120°37'0 0.0
2015-Jul-26 05:33N 31°59' E 120°37'0 0.0
2015-Jul-26 04:32N 31°59' E 120°37'0 0.0
2015-Jul-26 03:33N 31°59' E 120°37'0 0.0
2015-Jul-26 02:33N 31°59' E 120°37'0 0.0
2015-Jul-26 01:33N 31°59' E 120°37'0 0.0
2015-Jul-26 00:31N 31°59' E 120°37'0 0.0
2015-Jul-25 23:33N 31°59' E 120°37'0 0.0
2015-Jul-25 22:33N 31°59' E 120°37'0 0.0
2015-Jul-25 21:33N 31°59' E 120°37'0 0.0
2015-Jul-25 20:33N 31°59' E 120°37'0 0.0
2015-Jul-25 19:27N 31°59' E 120°37'0 0.0
2015-Jul-25 18:32N 31°59' E 120°37'0 0.0
2015-Jul-25 17:33N 31°59' E 120°37'0 0.0
2015-Jul-25 16:32N 31°59' E 120°37'0 0.0
2015-Jul-25 15:33N 31°59' E 120°37'0 0.0
2015-Jul-25 14:33N 31°59' E 120°37'0 0.0
2015-Jul-25 13:33N 31°59' E 120°37'0 0.0
2015-Jul-25 12:33N 31°59' E 120°37'0 0.0
2015-Jul-25 11:33N 31°59' E 120°37'0 0.0
2015-Jul-25 10:33N 31°59' E 120°37'0 0.0
2015-Jul-25 09:33N 31°59' E 120°37'0 0.0
2015-Jul-25 08:30N 31°59' E 120°37'0 0.0
2015-Jul-25 07:33N 31°59' E 120°37'0 0.0
2015-Jul-25 06:32N 31°59' E 120°37'3 2.8
2015-Jul-25 05:33N 32°00' E 120°40'9 8.9
2015-Jul-25 04:33N 31°59' E 120°51'10 9.7
2015-Jul-25 03:30N 31°49' E 120°55'9 9.2
2015-Jul-25 02:32N 31°46' E 121°05'1010.4
2015-Jul-25 01:33N 31°39' E 121°14'1010.4
2015-Jul-25 00:33N 31°32' E 121°22'1110.6
2015-Jul-24 23:33N 31°25' E 121°32'1110.5
2015-Jul-24 22:33N 31°20' E 121°42'1110.8
2015-Jul-24 21:33N 31°16' E 121°54'10 9.8
2015-Jul-24 20:33N 31°14' E 122°05'1111.1
2015-Jul-24 19:33N 31°08' E 122°16'1110.7
2015-Jul-24 18:33N 31°07' E 122°29'7 5.9
2015-Jul-24 17:25N 31°11' E 122°35'2 1.9
2015-Jul-24 16:13N 31°12' E 122°37'0 0.2
2015-Jul-24 15:28N 31°12' E 122°37'0 0.1
2015-Jul-24 14:30N 31°12' E 122°37'0 0.0
2015-Jul-24 13:15N 31°12' E 122°37'0 0.0
2015-Jul-24 12:33N 31°12' E 122°37'0 0.1
2015-Jul-24 11:33N 31°12' E 122°37'0 0.1
2015-Jul-24 10:21N 31°13' E 122°37'0 0.0
2015-Jul-24 09:28N 31°13' E 122°37'0 0.0
2015-Jul-24 08:24N 31°13' E 122°37'0 0.0
2015-Jul-24 07:33N 31°13' E 122°37'1 0.7
2015-Jul-24 05:33N 31°13' E 122°38'9 7.6
2015-Jul-24 04:23N 31°13' E 122°48'  

Dump ship's entire track history